DEPWI EDDH-EDAH
Flight info
| Callsign | DEPWI |
|---|---|
| Flight time | N/A |
| Altitude | 3000 |
| Route | EDDH/33 VFR |
| Aircraft | DA40/L-SDE3FGHIRWY/LB1 |
Departure
| Time | N/A |
|---|---|
| Airport | Hamburg Helmut Schmidt Airport (EDDH) |
Arrival
| Time | 2026-05-04 19:14 |
|---|---|
| Airport | Heringsdorf Airport (EDAH) |
| Time | Latitude | Longitude | Altitude | Speed | Heading |
|---|---|---|---|---|---|
| 2026-05-04 19:12 | 53.85288 | 14.21796 | 1334 ft | 77 kts | 340° |
| 2026-05-04 19:12 | 53.85769 | 14.21462 | 1202 ft | 74 kts | 330° |
| 2026-05-04 19:13 | 53.86232 | 14.20951 | 1045 ft | 81 kts | 324° |
| 2026-05-04 19:13 | 53.86642 | 14.20340 | 940 ft | 71 kts | 317° |
| 2026-05-04 19:13 | 53.86946 | 14.19691 | 768 ft | 74 kts | 306° |
| 2026-05-04 19:13 | 53.87201 | 14.18895 | 540 ft | 78 kts | 296° |
| 2026-05-04 19:14 | 53.87384 | 14.18016 | 297 ft | 79 kts | 293° |
| 2026-05-04 19:14 | 53.87539 | 14.17158 | 168 ft | 74 kts | 290° |
| 2026-05-04 19:14 | 53.87680 | 14.16366 | 76 ft | 66 kts | 292° |
| 2026-05-04 19:14 | 53.87792 | 14.15694 | 67 ft | 45 kts | 285° |
| 2026-05-04 19:15 | 53.87861 | 14.15260 | 67 ft | 25 kts | 281° |
| 2026-05-04 19:15 | 53.87917 | 14.14961 | 75 ft | 27 kts | 292° |
| 2026-05-04 19:15 | 53.87969 | 14.14654 | 73 ft | 27 kts | 288° |
| 2026-05-04 19:15 | 53.88022 | 14.14341 | 69 ft | 28 kts | 285° |
| 2026-05-04 19:16 | 53.88070 | 14.14038 | 71 ft | 25 kts | 283° |
| 2026-05-04 19:16 | 53.88044 | 14.13886 | 73 ft | 13 kts | 185° |
| 2026-05-04 19:16 | 53.87966 | 14.13910 | 69 ft | 0 kts | 165° |
| 2026-05-04 19:16 | 53.87965 | 14.13910 | 69 ft | 1 kts | 166° |
| 2026-05-04 19:17 | 53.87933 | 14.13964 | 68 ft | 12 kts | 118° |
| 2026-05-04 19:17 | 53.87881 | 14.14118 | 70 ft | 18 kts | 118° |
| 2026-05-04 19:17 | 53.87816 | 14.14312 | 73 ft | 18 kts | 116° |
| 2026-05-04 19:17 | 53.87771 | 14.14451 | 73 ft | 9 kts | 123° |
| 2026-05-04 19:18 | 53.87750 | 14.14477 | 73 ft | 3 kts | 163° |
| 2026-05-04 19:18 | 53.87731 | 14.14481 | 73 ft | 2 kts | 177° |
| 2026-05-04 19:18 | 53.87728 | 14.14470 | 73 ft | 0 kts | 355° |